Pointe-Claire, Canada
Current Conditions -  °F | °C
As of 3:00 AM on Sunday 26 Oct 2014 (Local Time) from CYUL Reporting Station
Scattered Clouds Scattered Clouds  
Wind Chill: 42°   Ceiling: Unl
Heat Index: 46°   Visibility: 15mi
Dew Point: 43°   Wind: 8mph
Humidity: 87%   Direction: 260°W
Pressure: 29.4"   Gusts: NA
Location:  45.43°N, 73.75°W
Report Text: CYUL 260700Z 26007KT 15SM FEW010 SCT110 08/06 A2940 RMK SF1AC4 SF TR SLP956
Loading
Personal Weather Stations






























Interactive Weather Map
Tropical Storm Tracking
New forecast layout! Learn more

10-Day Weather Forecast

Advertisements
Track Severe Weather on mobile